Flight Track Log - Related Links

Times and Time Zones

All times are in EDT time to prevent confusion due to time zone crossing. See the FLG4216 flight status page for this flight to view local times or setup timezone preferences in your user account.

Time Position Orientation Groundspeed Altitude Reporting Facility
EDT Latitude Longitude Course Direction KTS MPH feet Rate Location/Type
Thu 05:59:00 PM 39.0500 -84.6833 347° North 160 184 1,500  Level Cincinnati TRACON
Thu 05:59:54 PM 39.0667 -84.7333 293° West 204 235 2,300 1,579 Climbing Cincinnati TRACON
Thu 06:00:54 PM 39.0833 -84.8333 282° West 286 329 4,500 2,329 Climbing Cincinnati TRACON
Thu 06:02:00 PM 39.0853 -84.4020 322° Northwest  Level FlightAware
Thu 06:02:26 PM 39.1933 -84.8428 356° North 291 335 8,200  Level Indianapolis Center
Thu 06:03:00 PM 39.1720 -84.4382 347° North  Level FlightAware
Thu 06:03:28 PM 39.2689 -84.7961 26° Northeast 298 343 10,900  Level Indianapolis Center
Thu 06:04:00 PM 39.2620 -84.4653 347° North  Level FlightAware
Thu 06:04:30 PM 39.3533 -84.7408 27° Northeast 335 386 12,400  Level Indianapolis Center
Thu 06:05:32 PM 39.4436 -84.6786 28° Northeast 359 413 13,900 1,742 Climbing Indianapolis Center
Thu 06:06:34 PM 39.5542 -84.6036 28° Northeast 377 434 16,000 1,790 Climbing Indianapolis Center
Thu 06:07:36 PM 39.6564 -84.5544 20° North 386 444 17,600 1,452 Climbing Indianapolis Center
Thu 06:08:38 PM 39.7625 -84.5083 18° North 394 453 19,000 1,113 Climbing Indianapolis Center
Thu 06:09:40 PM 39.8692 -84.4608 19° North 398 458 19,900 726 Climbing Indianapolis Center
Thu 06:10:42 PM 39.9822 -84.4111 19° North 416 479 20,500 532 Climbing Indianapolis Center
Thu 06:11:44 PM 40.1053 -84.3994 North 434 499 21,000 242 Climbing Indianapolis Center
Thu 06:12:46 PM 40.2306 -84.4031 359° North 440 506 21,000 -96 Level Indianapolis Center
Thu 06:13:49 PM 40.3525 -84.4050 359° North 436 502 20,800 -960 Descending Indianapolis Center
Thu 06:14:51 PM 40.4875 -84.4078 359° North 418 481 19,000 -871 Descending Indianapolis Center
Thu 06:15:53 PM 40.6000 -84.4122 358° North 403 464 19,000  Level Indianapolis Center
Thu 06:16:55 PM 40.7128 -84.4150 359° North 401 461 19,000  Level Indianapolis Center
Thu 06:17:57 PM 40.8253 -84.4181 359° North 402 463 19,000  Level Indianapolis Center
Thu 06:18:59 PM 40.9389 -84.4225 358° North 403 464 19,000  Level Indianapolis Center
Thu 06:19:23 PM 40.9844 -84.4233 359° North 398 458 19,000  Level Cleveland Center
Thu 06:20:23 PM 41.0969 -84.4272 359° North 403 464 19,000 -400 Level Cleveland Center
Thu 06:21:23 PM 41.2072 -84.4281 360° North 403 464 18,200 -1,050 Descending Cleveland Center
Thu 06:22:23 PM 41.3158 -84.4292 360° North 397 457 16,900 -1,400 Descending Cleveland Center
Thu 06:23:23 PM 41.4219 -84.4325 359° North 387 445 15,400 -1,500 Descending Cleveland Center
Thu 06:24:23 PM 41.5131 -84.3881 20° North 355 409 13,900 -1,500 Descending Cleveland Center
Thu 06:25:23 PM 41.5803 -84.3142 39° Northeast 320 368 12,400 -1,018 Descending Cleveland Center
Thu 06:26:15 PM 41.6450 -84.2431 39° Northeast 311 358 12,000 -224 Descending Cleveland Center
Thu 06:27:10 PM 41.7036 -84.1739 41° Northeast 312 359 12,000  Level Cleveland Center
Thu 06:28:23 PM 41.7747 -84.0944 40° Northeast 303 349 12,000  Level Cleveland Center
Thu 06:29:13 PM 41.8353 -84.0281 39° Northeast 298 343 12,000  Level Cleveland Center
Thu 06:30:14 PM 41.8939 -83.9447 47° Northeast 288 331 12,000  Level Cleveland Center
Thu 06:31:21 PM 41.9489 -83.8469 53° Northeast 306 352 12,000  Level Cleveland Center
Thu 06:32:23 PM 41.9947 -83.7711 51° Northeast 290 334 12,000  Level Cleveland Center
Thu 06:33:18 PM 42.0386 -83.6978 51° Northeast 246 283 12,000  Level Cleveland Center
Thu 06:34:19 PM 42.1003 -83.6475 31° Northeast 263 303 12,000  Level Cleveland Center
Thu 06:35:20 PM 42.1664 -83.5975 29° Northeast 253 291 12,000 -47 Level Cleveland Center
Thu 06:36:27 PM 42.2300 -83.5531 27° Northeast 232 267 11,900 -703 Descending Cleveland Center
Thu 06:37:28 PM 42.2875 -83.5081 30° Northeast 238 274 10,500 -1,574 Descending Cleveland Center
Thu 06:38:29 PM 42.3489 -83.4658 27° Northeast 228 262 8,700 -1,574 Descending Cleveland Center
Thu 06:39:30 PM 42.4019 -83.4317 25° Northeast 219 252 7,300 -1,594 Descending Cleveland Center
Thu 06:40:37 PM 42.4553 -83.3806 35° Northeast 203 234 5,300 -1,453 Descending Cleveland Center
Thu 06:41:38 PM 42.4422 -83.3208 106° East 161 185 4,200 -639 Descending Cleveland Center
Thu 06:42:39 PM 42.4075 -83.2942 150° Southeast 160 184 4,000 -197 Descending Cleveland Center

Login

Don't have an account? Register now (free) for customized features, flight alerts, and more!